sensor_id;sensor_type;location;lat;lon;timestamp;P1;durP1;ratioP1;P2;durP2;ratioP2
21038;SDS011;10678;51.002;4.786;2022-09-01T00:01:33;987.60;;;789.65;;
21038;SDS011;10678;51.002;4.786;2022-09-01T00:04:01;1010.20;;;778.65;;
21038;SDS011;10678;51.002;4.786;2022-09-01T00:06:28;886.05;;;797.70;;
21038;SDS011;10678;51.002;4.786;2022-09-01T00:08:57;1183.03;;;802.30;;
21038;SDS011;10678;51.002;4.786;2022-09-01T00:11:25;924.00;;;831.25;;
21038;SDS011;10678;51.002;4.786;2022-09-01T00:13:52;810.65;;;728.85;;
21038;SDS011;10678;51.002;4.786;2022-09-01T00:16:18;870.88;;;784.08;;
21038;SDS011;10678;51.002;4.786;2022-09-01T00:18:46;1113.32;;;817.58;;
21038;SDS011;10678;51.002;4.786;2022-09-01T00:21:15;1290.85;;;814.38;;
21038;SDS011;10678;51.002;4.786;2022-09-01T00:23:43;1421.88;;;648.60;;
21038;SDS011;10678;51.002;4.786;2022-09-01T00:26:09;1193.03;;;829.35;;
21038;SDS011;10678;51.002;4.786;2022-09-01T00:28:35;1328.55;;;862.78;;
21038;SDS011;10678;51.002;4.786;2022-09-01T00:31:02;1999.90;;;999.90;;
21038;SDS011;10678;51.002;4.786;2022-09-01T00:33:30;1999.90;;;999.90;;
21038;SDS011;10678;51.002;4.786;2022-09-01T00:35:56;1540.00;;;850.25;;
21038;SDS011;10678;51.002;4.786;2022-09-01T00:38:22;1234.03;;;803.10;;
21038;SDS011;10678;51.002;4.786;2022-09-01T00:40:48;1402.13;;;860.10;;
21038;SDS011;10678;51.002;4.786;2022-09-01T00:43:16;1999.90;;;999.90;;
21038;SDS011;10678;51.002;4.786;2022-09-01T00:45:47;1999.90;;;999.90;;
21038;SDS011;10678;51.002;4.786;2022-09-01T00:48:15;1220.68;;;823.00;;
21038;SDS011;10678;51.002;4.786;2022-09-01T00:50:43;1452.80;;;884.25;;
21038;SDS011;10678;51.002;4.786;2022-09-01T00:53:10;915.05;;;813.80;;
21038;SDS011;10678;51.002;4.786;2022-09-01T00:55:36;1363.32;;;852.55;;
21038;SDS011;10678;51.002;4.786;2022-09-01T00:58:02;1354.43;;;854.50;;
21038;SDS011;10678;51.002;4.786;2022-09-01T01:00:32;1295.78;;;836.83;;
21038;SDS011;10678;51.002;4.786;2022-09-01T01:03:06;921.15;;;772.50;;
21038;SDS011;10678;51.002;4.786;2022-09-01T01:05:35;1244.40;;;847.38;;
21038;SDS011;10678;51.002;4.786;2022-09-01T01:08:05;1261.80;;;820.10;;
21038;SDS011;10678;51.002;4.786;2022-09-01T01:10:32;971.70;;;874.17;;
21038;SDS011;10678;51.002;4.786;2022-09-01T01:13:01;925.75;;;808.95;;
21038;SDS011;10678;51.002;4.786;2022-09-01T01:15:38;929.97;;;793.90;;
21038;SDS011;10678;51.002;4.786;2022-09-01T01:18:07;894.05;;;786.70;;
21038;SDS011;10678;51.002;4.786;2022-09-01T01:20:37;1256.90;;;814.58;;
21038;SDS011;10678;51.002;4.786;2022-09-01T01:26:01;1216.82;;;861.65;;
21038;SDS011;10678;51.002;4.786;2022-09-01T01:28:33;1294.65;;;847.03;;
21038;SDS011;10678;51.002;4.786;2022-09-01T01:31:09;1300.53;;;826.50;;
21038;SDS011;10678;51.002;4.786;2022-09-01T01:33:41;1543.28;;;903.60;;
21038;SDS011;10678;51.002;4.786;2022-09-01T01:36:19;1040.80;;;842.65;;
21038;SDS011;10678;51.002;4.786;2022-09-01T01:39:10;989.80;;;801.92;;
21038;SDS011;10678;51.002;4.786;2022-09-01T01:41:38;943.38;;;837.58;;
21038;SDS011;10678;51.002;4.786;2022-09-01T01:44:08;1196.72;;;859.88;;
21038;SDS011;10678;51.002;4.786;2022-09-01T01:46:36;966.25;;;747.03;;
21038;SDS011;10678;51.002;4.786;2022-09-01T01:49:06;1999.90;;;999.90;;
21038;SDS011;10678;51.002;4.786;2022-09-01T01:51:33;937.15;;;791.33;;
21038;SDS011;10678;51.002;4.786;2022-09-01T01:53:59;1272.70;;;816.20;;
21038;SDS011;10678;51.002;4.786;2022-09-01T01:56:29;1999.90;;;999.90;;
21038;SDS011;10678;51.002;4.786;2022-09-01T01:58:57;1259.38;;;784.38;;
21038;SDS011;10678;51.002;4.786;2022-09-01T02:01:26;1999.90;;;999.90;;
21038;SDS011;10678;51.002;4.786;2022-09-01T02:03:54;1347.50;;;885.58;;
21038;SDS011;10678;51.002;4.786;2022-09-01T02:06:22;1267.05;;;791.42;;
21038;SDS011;10678;51.002;4.786;2022-09-01T02:08:50;1999.90;;;999.90;;
21038;SDS011;10678;51.002;4.786;2022-09-01T02:11:20;1999.90;;;999.90;;
21038;SDS011;10678;51.002;4.786;2022-09-01T02:13:46;1999.90;;;999.90;;
21038;SDS011;10678;51.002;4.786;2022-09-01T02:16:14;1999.90;;;999.90;;
21038;SDS011;10678;51.002;4.786;2022-09-01T02:18:42;1999.90;;;999.90;;
21038;SDS011;10678;51.002;4.786;2022-09-01T02:21:12;1999.90;;;999.90;;
21038;SDS011;10678;51.002;4.786;2022-09-01T02:23:42;1999.90;;;999.90;;
21038;SDS011;10678;51.002;4.786;2022-09-01T02:26:08;1999.90;;;999.90;;
21038;SDS011;10678;51.002;4.786;2022-09-01T02:28:38;1999.90;;;999.90;;
21038;SDS011;10678;51.002;4.786;2022-09-01T02:31:06;1303.32;;;894.47;;
21038;SDS011;10678;51.002;4.786;2022-09-01T02:33:33;1999.90;;;999.90;;
21038;SDS011;10678;51.002;4.786;2022-09-01T02:36:04;1999.90;;;999.90;;
21038;SDS011;10678;51.002;4.786;2022-09-01T02:38:32;1008.47;;;767.13;;
21038;SDS011;10678;51.002;4.786;2022-09-01T02:40:59;1999.90;;;999.90;;
21038;SDS011;10678;51.002;4.786;2022-09-01T02:43:26;1999.90;;;999.90;;
21038;SDS011;10678;51.002;4.786;2022-09-01T02:45:53;1257.18;;;830.00;;
21038;SDS011;10678;51.002;4.786;2022-09-01T02:48:24;1999.90;;;999.90;;
21038;SDS011;10678;51.002;4.786;2022-09-01T02:51:05;1497.13;;;875.95;;
21038;SDS011;10678;51.002;4.786;2022-09-01T02:53:33;1195.03;;;859.95;;
21038;SDS011;10678;51.002;4.786;2022-09-01T02:56:00;1999.90;;;999.90;;
21038;SDS011;10678;51.002;4.786;2022-09-01T02:58:28;1999.90;;;999.90;;
21038;SDS011;10678;51.002;4.786;2022-09-01T03:00:57;1999.90;;;999.90;;
21038;SDS011;10678;51.002;4.786;2022-09-01T03:03:22;1999.90;;;999.90;;
21038;SDS011;10678;51.002;4.786;2022-09-01T03:05:51;1242.25;;;845.50;;
21038;SDS011;10678;51.002;4.786;2022-09-01T03:08:21;1999.90;;;999.90;;
21038;SDS011;10678;51.002;4.786;2022-09-01T03:10:48;1999.90;;;999.90;;
21038;SDS011;10678;51.002;4.786;2022-09-01T03:13:18;1999.90;;;999.90;;
21038;SDS011;10678;51.002;4.786;2022-09-01T03:15:46;1308.50;;;835.33;;
21038;SDS011;10678;51.002;4.786;2022-09-01T03:18:13;1999.90;;;999.90;;
21038;SDS011;10678;51.002;4.786;2022-09-01T03:20:40;1999.90;;;999.90;;
21038;SDS011;10678;51.002;4.786;2022-09-01T03:23:09;1999.90;;;999.90;;
21038;SDS011;10678;51.002;4.786;2022-09-01T03:25:38;1999.90;;;999.90;;
21038;SDS011;10678;51.002;4.786;2022-09-01T03:28:08;1999.90;;;999.90;;
21038;SDS011;10678;51.002;4.786;2022-09-01T03:30:37;1999.90;;;999.90;;
21038;SDS011;10678;51.002;4.786;2022-09-01T03:33:07;1999.90;;;999.90;;
21038;SDS011;10678;51.002;4.786;2022-09-01T03:35:33;1999.90;;;999.90;;
21038;SDS011;10678;51.002;4.786;2022-09-01T03:37:59;1999.90;;;999.90;;
21038;SDS011;10678;51.002;4.786;2022-09-01T03:40:27;1999.90;;;999.90;;
21038;SDS011;10678;51.002;4.786;2022-09-01T03:42:57;1999.90;;;999.90;;
21038;SDS011;10678;51.002;4.786;2022-09-01T03:45:27;1999.90;;;999.90;;
21038;SDS011;10678;51.002;4.786;2022-09-01T03:47:54;1999.90;;;999.90;;
21038;SDS011;10678;51.002;4.786;2022-09-01T03:50:22;1999.90;;;999.90;;
21038;SDS011;10678;51.002;4.786;2022-09-01T03:52:53;1999.90;;;999.90;;
21038;SDS011;10678;51.002;4.786;2022-09-01T03:55:24;1999.90;;;999.90;;
21038;SDS011;10678;51.002;4.786;2022-09-01T03:57:54;1999.90;;;999.90;;
21038;SDS011;10678;51.002;4.786;2022-09-01T04:00:27;1999.90;;;999.90;;
21038;SDS011;10678;51.002;4.786;2022-09-01T04:02:55;1999.90;;;999.90;;
21038;SDS011;10678;51.002;4.786;2022-09-01T04:05:23;1999.90;;;999.90;;
21038;SDS011;10678;51.002;4.786;2022-09-01T04:07:52;1999.90;;;999.90;;
21038;SDS011;10678;51.002;4.786;2022-09-01T04:10:19;1999.90;;;999.90;;
21038;SDS011;10678;51.002;4.786;2022-09-01T04:12:46;1999.90;;;999.90;;
21038;SDS011;10678;51.002;4.786;2022-09-01T04:15:13;1999.90;;;999.90;;
21038;SDS011;10678;51.002;4.786;2022-09-01T04:17:41;1999.90;;;999.90;;
21038;SDS011;10678;51.002;4.786;2022-09-01T04:20:26;1999.90;;;999.90;;
21038;SDS011;10678;51.002;4.786;2022-09-01T04:22:53;1999.90;;;999.90;;
21038;SDS011;10678;51.002;4.786;2022-09-01T04:25:20;1999.90;;;999.90;;
21038;SDS011;10678;51.002;4.786;2022-09-01T04:27:49;1999.90;;;999.90;;
21038;SDS011;10678;51.002;4.786;2022-09-01T04:30:19;1999.90;;;999.90;;
21038;SDS011;10678;51.002;4.786;2022-09-01T04:32:49;1999.90;;;999.90;;
21038;SDS011;10678;51.002;4.786;2022-09-01T04:35:16;1999.90;;;999.90;;
21038;SDS011;10678;51.002;4.786;2022-09-01T04:37:43;1999.90;;;999.90;;
21038;SDS011;10678;51.002;4.786;2022-09-01T04:40:11;1999.90;;;999.90;;
21038;SDS011;10678;51.002;4.786;2022-09-01T04:42:38;1999.90;;;999.90;;
21038;SDS011;10678;51.002;4.786;2022-09-01T04:45:05;1999.90;;;999.90;;
21038;SDS011;10678;51.002;4.786;2022-09-01T04:47:35;1999.90;;;999.90;;
21038;SDS011;10678;51.002;4.786;2022-09-01T04:50:06;1999.90;;;999.90;;
21038;SDS011;10678;51.002;4.786;2022-09-01T04:52:41;1999.90;;;999.90;;
21038;SDS011;10678;51.002;4.786;2022-09-01T04:55:12;1999.90;;;999.90;;
21038;SDS011;10678;51.002;4.786;2022-09-01T04:57:45;1999.90;;;999.90;;
21038;SDS011;10678;51.002;4.786;2022-09-01T05:00:18;1999.90;;;999.90;;
21038;SDS011;10678;51.002;4.786;2022-09-01T05:02:51;1999.90;;;999.90;;
21038;SDS011;10678;51.002;4.786;2022-09-01T05:05:22;1999.90;;;999.90;;
21038;SDS011;10678;51.002;4.786;2022-09-01T05:07:48;1999.90;;;999.90;;
21038;SDS011;10678;51.002;4.786;2022-09-01T05:10:20;1999.90;;;999.90;;
21038;SDS011;10678;51.002;4.786;2022-09-01T05:12:47;1999.90;;;999.90;;
21038;SDS011;10678;51.002;4.786;2022-09-01T05:15:15;1999.90;;;999.90;;
21038;SDS011;10678;51.002;4.786;2022-09-01T05:17:41;1999.90;;;999.90;;
21038;SDS011;10678;51.002;4.786;2022-09-01T05:20:08;1999.90;;;999.90;;
21038;SDS011;10678;51.002;4.786;2022-09-01T05:22:35;1999.90;;;999.90;;
21038;SDS011;10678;51.002;4.786;2022-09-01T05:25:05;1999.90;;;999.90;;
21038;SDS011;10678;51.002;4.786;2022-09-01T05:27:38;1999.90;;;999.90;;
21038;SDS011;10678;51.002;4.786;2022-09-01T05:30:05;1999.90;;;999.90;;
21038;SDS011;10678;51.002;4.786;2022-09-01T05:32:33;1999.90;;;999.90;;
21038;SDS011;10678;51.002;4.786;2022-09-01T05:35:01;1999.90;;;999.90;;
21038;SDS011;10678;51.002;4.786;2022-09-01T05:37:30;1999.90;;;999.90;;
21038;SDS011;10678;51.002;4.786;2022-09-01T05:39:56;1999.90;;;999.90;;
21038;SDS011;10678;51.002;4.786;2022-09-01T05:42:22;1999.90;;;999.90;;
21038;SDS011;10678;51.002;4.786;2022-09-01T05:44:48;1999.90;;;999.90;;
21038;SDS011;10678;51.002;4.786;2022-09-01T05:47:14;1999.90;;;999.90;;
21038;SDS011;10678;51.002;4.786;2022-09-01T05:49:40;1999.90;;;999.90;;
21038;SDS011;10678;51.002;4.786;2022-09-01T05:52:06;1999.90;;;999.90;;
21038;SDS011;10678;51.002;4.786;2022-09-01T05:54:33;1999.90;;;999.90;;
21038;SDS011;10678;51.002;4.786;2022-09-01T05:56:59;1999.90;;;999.90;;
21038;SDS011;10678;51.002;4.786;2022-09-01T05:59:27;1999.90;;;999.90;;
21038;SDS011;10678;51.002;4.786;2022-09-01T06:01:55;1999.90;;;999.90;;
21038;SDS011;10678;51.002;4.786;2022-09-01T06:04:21;1999.90;;;999.90;;
21038;SDS011;10678;51.002;4.786;2022-09-01T06:06:49;1999.90;;;999.90;;
21038;SDS011;10678;51.002;4.786;2022-09-01T06:09:15;1999.90;;;999.90;;
21038;SDS011;10678;51.002;4.786;2022-09-01T06:11:47;1999.90;;;999.90;;
21038;SDS011;10678;51.002;4.786;2022-09-01T06:14:14;1999.90;;;999.90;;
21038;SDS011;10678;51.002;4.786;2022-09-01T06:16:41;1999.90;;;999.90;;
21038;SDS011;10678;51.002;4.786;2022-09-01T06:19:07;1999.90;;;999.90;;
21038;SDS011;10678;51.002;4.786;2022-09-01T06:21:34;1999.90;;;999.90;;
21038;SDS011;10678;51.002;4.786;2022-09-01T06:24:02;1999.90;;;999.90;;
21038;SDS011;10678;51.002;4.786;2022-09-01T06:26:29;1999.90;;;999.90;;
21038;SDS011;10678;51.002;4.786;2022-09-01T06:28:56;1999.90;;;999.90;;
21038;SDS011;10678;51.002;4.786;2022-09-01T06:31:26;1999.90;;;999.90;;
21038;SDS011;10678;51.002;4.786;2022-09-01T06:33:58;1999.90;;;999.90;;
21038;SDS011;10678;51.002;4.786;2022-09-01T06:36:25;1999.90;;;999.90;;
21038;SDS011;10678;51.002;4.786;2022-09-01T06:38:51;1999.90;;;999.90;;
21038;SDS011;10678;51.002;4.786;2022-09-01T06:41:18;1999.90;;;999.90;;
21038;SDS011;10678;51.002;4.786;2022-09-01T06:43:46;1999.90;;;999.90;;
21038;SDS011;10678;51.002;4.786;2022-09-01T06:46:13;1999.90;;;999.90;;
21038;SDS011;10678;51.002;4.786;2022-09-01T06:48:41;1999.90;;;999.90;;
21038;SDS011;10678;51.002;4.786;2022-09-01T06:51:10;1999.90;;;999.90;;
21038;SDS011;10678;51.002;4.786;2022-09-01T06:53:41;1999.90;;;999.90;;
21038;SDS011;10678;51.002;4.786;2022-09-01T06:56:08;1999.90;;;999.90;;
21038;SDS011;10678;51.002;4.786;2022-09-01T06:58:38;1999.90;;;999.90;;
21038;SDS011;10678;51.002;4.786;2022-09-01T07:01:09;1999.90;;;999.90;;
21038;SDS011;10678;51.002;4.786;2022-09-01T07:03:44;1999.90;;;999.90;;
21038;SDS011;10678;51.002;4.786;2022-09-01T07:06:11;1999.90;;;999.90;;
21038;SDS011;10678;51.002;4.786;2022-09-01T07:08:39;1999.90;;;999.90;;
21038;SDS011;10678;51.002;4.786;2022-09-01T07:11:16;1113.70;;;817.85;;
21038;SDS011;10678;51.002;4.786;2022-09-01T07:13:47;1033.03;;;765.22;;
21038;SDS011;10678;51.002;4.786;2022-09-01T07:16:15;1371.50;;;820.95;;
21038;SDS011;10678;51.002;4.786;2022-09-01T07:18:46;962.17;;;742.05;;
21038;SDS011;10678;51.002;4.786;2022-09-01T07:21:13;1999.90;;;999.90;;
21038;SDS011;10678;51.002;4.786;2022-09-01T07:23:38;1999.90;;;999.90;;
21038;SDS011;10678;51.002;4.786;2022-09-01T07:26:05;1999.90;;;999.90;;
21038;SDS011;10678;51.002;4.786;2022-09-01T07:28:31;1331.15;;;797.08;;
21038;SDS011;10678;51.002;4.786;2022-09-01T07:30:58;888.20;;;764.15;;
21038;SDS011;10678;51.002;4.786;2022-09-01T07:33:24;824.28;;;734.85;;
21038;SDS011;10678;51.002;4.786;2022-09-01T07:35:51;1075.88;;;780.35;;
21038;SDS011;10678;51.002;4.786;2022-09-01T07:38:20;1102.32;;;960.72;;
21038;SDS011;10678;51.002;4.786;2022-09-01T07:40:46;895.75;;;801.38;;
21038;SDS011;10678;51.002;4.786;2022-09-01T07:43:17;1089.72;;;961.35;;
21038;SDS011;10678;51.002;4.786;2022-09-01T07:45:49;1147.07;;;999.33;;
21038;SDS011;10678;51.002;4.786;2022-09-01T07:48:20;946.55;;;850.80;;
21038;SDS011;10678;51.002;4.786;2022-09-01T07:50:48;1034.63;;;921.20;;
21038;SDS011;10678;51.002;4.786;2022-09-01T07:53:17;1052.18;;;915.22;;
21038;SDS011;10678;51.002;4.786;2022-09-01T07:55:46;599.03;;;555.78;;
21038;SDS011;10678;51.002;4.786;2022-09-01T07:58:16;924.05;;;823.50;;
21038;SDS011;10678;51.002;4.786;2022-09-01T08:00:47;947.70;;;845.35;;
21038;SDS011;10678;51.002;4.786;2022-09-01T08:03:15;988.53;;;858.95;;
21038;SDS011;10678;51.002;4.786;2022-09-01T08:05:43;623.67;;;572.88;;
21038;SDS011;10678;51.002;4.786;2022-09-01T08:08:11;876.20;;;785.17;;
21038;SDS011;10678;51.002;4.786;2022-09-01T08:10:38;551.58;;;514.30;;
21038;SDS011;10678;51.002;4.786;2022-09-01T08:13:05;1049.07;;;913.13;;
21038;SDS011;10678;51.002;4.786;2022-09-01T08:15:32;535.15;;;503.00;;
21038;SDS011;10678;51.002;4.786;2022-09-01T08:17:58;827.10;;;755.08;;
21038;SDS011;10678;51.002;4.786;2022-09-01T08:20:23;776.47;;;709.95;;
21038;SDS011;10678;51.002;4.786;2022-09-01T08:22:49;624.17;;;583.83;;
21038;SDS011;10678;51.002;4.786;2022-09-01T08:25:15;614.80;;;577.08;;
21038;SDS011;10678;51.002;4.786;2022-09-01T08:27:41;638.92;;;599.42;;
21038;SDS011;10678;51.002;4.786;2022-09-01T08:30:08;644.53;;;602.90;;
21038;SDS011;10678;51.002;4.786;2022-09-01T08:32:37;685.55;;;640.70;;
21038;SDS011;10678;51.002;4.786;2022-09-01T08:35:04;651.97;;;610.25;;
21038;SDS011;10678;51.002;4.786;2022-09-01T08:37:30;681.75;;;636.97;;
21038;SDS011;10678;51.002;4.786;2022-09-01T08:39:56;661.75;;;618.25;;
21038;SDS011;10678;51.002;4.786;2022-09-01T08:42:37;686.20;;;638.05;;
21038;SDS011;10678;51.002;4.786;2022-09-01T08:45:10;440.05;;;415.55;;
21038;SDS011;10678;51.002;4.786;2022-09-01T08:47:59;360.23;;;341.50;;
21038;SDS011;10678;51.002;4.786;2022-09-01T08:50:32;530.35;;;497.80;;
21038;SDS011;10678;51.002;4.786;2022-09-01T08:53:08;695.20;;;648.45;;
21038;SDS011;10678;51.002;4.786;2022-09-01T08:55:49;427.42;;;402.15;;
21038;SDS011;10678;51.002;4.786;2022-09-01T08:58:19;489.48;;;459.15;;
21038;SDS011;10678;51.002;4.786;2022-09-01T09:00:45;682.30;;;635.97;;
21038;SDS011;10678;51.002;4.786;2022-09-01T09:08:55;175.80;;;166.15;;
21038;SDS011;10678;51.002;4.786;2022-09-01T09:12:04;156.82;;;148.57;;
21038;SDS011;10678;51.002;4.786;2022-09-01T09:17:09;81.72;;;77.53;;
21038;SDS011;10678;51.002;4.786;2022-09-01T09:19:41;85.28;;;80.78;;
21038;SDS011;10678;51.002;4.786;2022-09-01T09:22:13;62.58;;;59.22;;
21038;SDS011;10678;51.002;4.786;2022-09-01T09:24:45;75.50;;;71.75;;
21038;SDS011;10678;51.002;4.786;2022-09-01T09:27:22;51.13;;;48.50;;
21038;SDS011;10678;51.002;4.786;2022-09-01T09:30:09;143.38;;;135.13;;
21038;SDS011;10678;51.002;4.786;2022-09-01T09:32:54;53.80;;;51.05;;
21038;SDS011;10678;51.002;4.786;2022-09-01T09:40:57;34.65;;;32.88;;
21038;SDS011;10678;51.002;4.786;2022-09-01T09:43:42;36.45;;;34.65;;
21038;SDS011;10678;51.002;4.786;2022-09-01T09:48:48;42.20;;;39.88;;
21038;SDS011;10678;51.002;4.786;2022-09-01T09:51:30;42.20;;;40.10;;
21038;SDS011;10678;51.002;4.786;2022-09-01T09:54:09;46.60;;;44.13;;
21038;SDS011;10678;51.002;4.786;2022-09-01T09:56:46;46.88;;;44.40;;
21038;SDS011;10678;51.002;4.786;2022-09-01T09:59:21;141.80;;;133.30;;
21038;SDS011;10678;51.002;4.786;2022-09-01T10:01:51;133.82;;;127.47;;
21038;SDS011;10678;51.002;4.786;2022-09-01T10:04:41;113.15;;;107.70;;
21038;SDS011;10678;51.002;4.786;2022-09-01T10:10:04;255.98;;;242.13;;
21038;SDS011;10678;51.002;4.786;2022-09-01T10:12:53;151.98;;;144.30;;
21038;SDS011;10678;51.002;4.786;2022-09-01T10:15:21;288.38;;;274.38;;
21038;SDS011;10678;51.002;4.786;2022-09-01T10:17:53;203.15;;;193.07;;
21038;SDS011;10678;51.002;4.786;2022-09-01T10:20:24;208.18;;;197.07;;
21038;SDS011;10678;51.002;4.786;2022-09-01T10:22:51;274.55;;;259.98;;
21038;SDS011;10678;51.002;4.786;2022-09-01T10:25:25;537.08;;;503.95;;
21038;SDS011;10678;51.002;4.786;2022-09-01T10:30:48;688.25;;;641.90;;
21038;SDS011;10678;51.002;4.786;2022-09-01T10:33:17;425.02;;;402.08;;
21038;SDS011;10678;51.002;4.786;2022-09-01T10:35:46;376.45;;;356.75;;
21038;SDS011;10678;51.002;4.786;2022-09-01T10:38:18;341.15;;;323.70;;
21038;SDS011;10678;51.002;4.786;2022-09-01T10:40:47;316.70;;;300.17;;
21038;SDS011;10678;51.002;4.786;2022-09-01T10:46:51;356.83;;;338.85;;
21038;SDS011;10678;51.002;4.786;2022-09-01T10:48:53;337.83;;;320.88;;
21038;SDS011;10678;51.002;4.786;2022-09-01T10:53:47;239.43;;;228.05;;
21038;SDS011;10678;51.002;4.786;2022-09-01T11:06:56;593.33;;;555.38;;
21038;SDS011;10678;51.002;4.786;2022-09-01T11:09:32;568.08;;;531.28;;
21038;SDS011;10678;51.002;4.786;2022-09-01T11:14:48;667.97;;;620.72;;
21038;SDS011;10678;51.002;4.786;2022-09-01T11:17:28;742.63;;;687.47;;
21038;SDS011;10678;51.002;4.786;2022-09-01T11:22:42;785.70;;;729.20;;
21038;SDS011;10678;51.002;4.786;2022-09-01T11:27:58;770.63;;;713.83;;
21038;SDS011;10678;51.002;4.786;2022-09-01T11:33:42;730.65;;;678.80;;
21038;SDS011;10678;51.002;4.786;2022-09-01T11:42:04;731.33;;;677.10;;
21038;SDS011;10678;51.002;4.786;2022-09-01T11:44:33;595.72;;;553.45;;
21038;SDS011;10678;51.002;4.786;2022-09-01T11:47:14;801.38;;;741.80;;
21038;SDS011;10678;51.002;4.786;2022-09-01T11:49:57;817.08;;;754.63;;
21038;SDS011;10678;51.002;4.786;2022-09-01T11:52:24;760.42;;;702.83;;
21038;SDS011;10678;51.002;4.786;2022-09-01T11:54:54;779.13;;;719.22;;
21038;SDS011;10678;51.002;4.786;2022-09-01T11:57:34;792.67;;;730.47;;
21038;SDS011;10678;51.002;4.786;2022-09-01T12:00:11;788.05;;;726.63;;
21038;SDS011;10678;51.002;4.786;2022-09-01T12:02:50;599.05;;;557.72;;
21038;SDS011;10678;51.002;4.786;2022-09-01T12:05:28;274.88;;;259.23;;
21038;SDS011;10678;51.002;4.786;2022-09-01T12:07:54;437.63;;;406.52;;
21038;SDS011;10678;51.002;4.786;2022-09-01T12:10:36;190.38;;;180.63;;
21038;SDS011;10678;51.002;4.786;2022-09-01T12:15:52;346.80;;;329.23;;
21038;SDS011;10678;51.002;4.786;2022-09-01T12:18:23;216.35;;;206.02;;
21038;SDS011;10678;51.002;4.786;2022-09-01T12:20:51;105.75;;;100.47;;
21038;SDS011;10678;51.002;4.786;2022-09-01T12:25:57;499.52;;;464.73;;
21038;SDS011;10678;51.002;4.786;2022-09-01T12:28:26;60.38;;;57.15;;
21038;SDS011;10678;51.002;4.786;2022-09-01T12:31:01;186.90;;;175.82;;
21038;SDS011;10678;51.002;4.786;2022-09-01T12:33:30;89.90;;;85.03;;
21038;SDS011;10678;51.002;4.786;2022-09-01T12:38:45;97.63;;;92.50;;
21038;SDS011;10678;51.002;4.786;2022-09-01T12:43:49;156.88;;;148.52;;
21038;SDS011;10678;51.002;4.786;2022-09-01T12:46:38;110.38;;;104.05;;
21038;SDS011;10678;51.002;4.786;2022-09-01T12:49:17;204.75;;;192.25;;
21038;SDS011;10678;51.002;4.786;2022-09-01T12:51:44;158.43;;;150.18;;
21038;SDS011;10678;51.002;4.786;2022-09-01T12:54:12;362.48;;;339.35;;
21038;SDS011;10678;51.002;4.786;2022-09-01T12:56:37;491.08;;;458.13;;
21038;SDS011;10678;51.002;4.786;2022-09-01T12:59:13;605.03;;;562.90;;
21038;SDS011;10678;51.002;4.786;2022-09-01T13:01:44;496.48;;;464.77;;
21038;SDS011;10678;51.002;4.786;2022-09-01T13:04:11;311.80;;;294.40;;
21038;SDS011;10678;51.002;4.786;2022-09-01T13:06:37;301.08;;;283.27;;
21038;SDS011;10678;51.002;4.786;2022-09-01T13:09:03;309.05;;;292.52;;
21038;SDS011;10678;51.002;4.786;2022-09-01T13:11:29;184.27;;;174.23;;
21038;SDS011;10678;51.002;4.786;2022-09-01T13:13:54;212.90;;;201.38;;
21038;SDS011;10678;51.002;4.786;2022-09-01T13:16:21;203.10;;;191.73;;
21038;SDS011;10678;51.002;4.786;2022-09-01T13:18:46;205.20;;;194.35;;
21038;SDS011;10678;51.002;4.786;2022-09-01T13:21:12;250.27;;;236.52;;
21038;SDS011;10678;51.002;4.786;2022-09-01T13:23:38;547.55;;;510.35;;
21038;SDS011;10678;51.002;4.786;2022-09-01T13:26:04;595.35;;;555.17;;
21038;SDS011;10678;51.002;4.786;2022-09-01T13:28:30;352.02;;;331.40;;
21038;SDS011;10678;51.002;4.786;2022-09-01T13:31:00;265.30;;;251.77;;
21038;SDS011;10678;51.002;4.786;2022-09-01T13:33:31;239.80;;;228.10;;
21038;SDS011;10678;51.002;4.786;2022-09-01T13:35:59;256.58;;;244.10;;
21038;SDS011;10678;51.002;4.786;2022-09-01T13:38:26;239.00;;;227.15;;
21038;SDS011;10678;51.002;4.786;2022-09-01T13:40:51;251.07;;;238.13;;
21038;SDS011;10678;51.002;4.786;2022-09-01T13:43:18;347.40;;;329.08;;
21038;SDS011;10678;51.002;4.786;2022-09-01T13:45:46;330.90;;;313.88;;
21038;SDS011;10678;51.002;4.786;2022-09-01T13:48:12;336.60;;;319.40;;
21038;SDS011;10678;51.002;4.786;2022-09-01T13:50:39;395.50;;;374.40;;
21038;SDS011;10678;51.002;4.786;2022-09-01T13:53:05;305.25;;;289.50;;
21038;SDS011;10678;51.002;4.786;2022-09-01T13:55:33;256.58;;;243.75;;
21038;SDS011;10678;51.002;4.786;2022-09-01T13:58:02;233.88;;;222.30;;
21038;SDS011;10678;51.002;4.786;2022-09-01T14:00:29;289.23;;;273.65;;
21038;SDS011;10678;51.002;4.786;2022-09-01T14:02:59;288.67;;;273.52;;
21038;SDS011;10678;51.002;4.786;2022-09-01T14:05:29;409.70;;;385.58;;
21038;SDS011;10678;51.002;4.786;2022-09-01T14:07:57;305.52;;;289.92;;
21038;SDS011;10678;51.002;4.786;2022-09-01T14:10:24;530.40;;;496.30;;
21038;SDS011;10678;51.002;4.786;2022-09-01T14:12:50;728.75;;;676.17;;
21038;SDS011;10678;51.002;4.786;2022-09-01T14:15:17;553.25;;;515.03;;
21038;SDS011;10678;51.002;4.786;2022-09-01T14:17:45;646.95;;;600.20;;
21038;SDS011;10678;51.002;4.786;2022-09-01T14:20:15;748.05;;;692.22;;
21038;SDS011;10678;51.002;4.786;2022-09-01T14:22:46;733.72;;;678.45;;
21038;SDS011;10678;51.002;4.786;2022-09-01T14:25:13;581.15;;;541.58;;
21038;SDS011;10678;51.002;4.786;2022-09-01T14:27:40;733.05;;;678.33;;
21038;SDS011;10678;51.002;4.786;2022-09-01T14:30:07;575.75;;;537.05;;
21038;SDS011;10678;51.002;4.786;2022-09-01T14:32:38;733.60;;;678.80;;
21038;SDS011;10678;51.002;4.786;2022-09-01T14:35:05;699.35;;;647.15;;
21038;SDS011;10678;51.002;4.786;2022-09-01T14:37:32;646.70;;;599.58;;
21038;SDS011;10678;51.002;4.786;2022-09-01T14:39:58;728.95;;;674.10;;
21038;SDS011;10678;51.002;4.786;2022-09-01T14:42:24;769.33;;;710.08;;
21038;SDS011;10678;51.002;4.786;2022-09-01T14:44:52;659.38;;;612.10;;
21038;SDS011;10678;51.002;4.786;2022-09-01T14:47:18;599.33;;;555.15;;
21038;SDS011;10678;51.002;4.786;2022-09-01T14:49:44;716.47;;;663.38;;
21038;SDS011;10678;51.002;4.786;2022-09-01T14:52:10;698.22;;;645.80;;
21038;SDS011;10678;51.002;4.786;2022-09-01T14:54:38;774.58;;;714.38;;
21038;SDS011;10678;51.002;4.786;2022-09-01T14:57:06;776.80;;;717.65;;
21038;SDS011;10678;51.002;4.786;2022-09-01T14:59:33;770.28;;;711.03;;
21038;SDS011;10678;51.002;4.786;2022-09-01T15:01:59;788.50;;;727.08;;
21038;SDS011;10678;51.002;4.786;2022-09-01T15:04:25;761.92;;;703.40;;
21038;SDS011;10678;51.002;4.786;2022-09-01T15:06:52;702.05;;;649.20;;
21038;SDS011;10678;51.002;4.786;2022-09-01T15:09:18;800.55;;;739.47;;
21038;SDS011;10678;51.002;4.786;2022-09-01T15:11:44;801.10;;;740.00;;
21038;SDS011;10678;51.002;4.786;2022-09-01T15:14:10;784.03;;;725.17;;